createdAt,value
2022-12-17T00:02:07.501Z,5.11
2022-12-17T00:04:52.643Z,5.44
2022-12-17T00:07:39.537Z,5.50
2022-12-17T00:10:26.205Z,5.41
2022-12-17T00:13:11.974Z,5.29
2022-12-17T00:15:57.362Z,5.25
2022-12-17T00:18:42.481Z,5.22
2022-12-17T00:21:43.653Z,5.21
2022-12-17T00:24:29.043Z,5.22
2022-12-17T00:27:14.523Z,5.18
2022-12-17T00:29:59.717Z,5.18
2022-12-17T00:32:45.200Z,5.17
2022-12-17T00:35:30.229Z,5.14
2022-12-17T00:38:15.692Z,5.50
2022-12-17T00:41:00.969Z,5.53
2022-12-17T00:43:46.144Z,5.34
2022-12-17T00:46:31.483Z,5.20
2022-12-17T00:49:16.581Z,5.05
2022-12-17T00:52:01.681Z,4.95
2022-12-17T00:54:48.745Z,4.83
2022-12-17T00:57:33.935Z,4.77
2022-12-17T01:00:19.298Z,4.70
2022-12-17T01:03:04.424Z,4.66
2022-12-17T01:05:50.072Z,4.60
2022-12-17T01:08:35.240Z,4.54
2022-12-17T01:11:27.017Z,4.51
2022-12-17T01:14:12.807Z,4.44
2022-12-17T01:16:58.015Z,4.39
2022-12-17T01:19:43.242Z,4.34
2022-12-17T01:22:28.952Z,4.31
2022-12-17T01:25:14.198Z,4.28
2022-12-17T01:27:59.293Z,4.26
2022-12-17T01:30:44.640Z,4.18
2022-12-17T01:33:29.870Z,4.12
2022-12-17T01:36:16.767Z,4.03
2022-12-17T01:39:03.280Z,3.99
2022-12-17T01:41:49.339Z,3.98
2022-12-17T01:45:02.402Z,4.01
2022-12-17T01:48:25.502Z,4.00
2022-12-17T01:51:15.044Z,3.99
2022-12-17T01:54:11.370Z,4.01
2022-12-17T01:57:02.176Z,4.07
2022-12-17T02:00:22.155Z,4.10
2022-12-17T02:03:07.410Z,4.10
2022-12-17T02:06:13.533Z,4.07
2022-12-17T02:09:48.282Z,4.04
2022-12-17T02:12:58.903Z,3.95
2022-12-17T02:16:01.897Z,3.89
2022-12-17T02:18:58.516Z,3.86
2022-12-17T02:21:46.633Z,3.82
2022-12-17T02:25:06.196Z,3.79
2022-12-17T02:27:53.118Z,3.77
2022-12-17T02:30:38.631Z,3.71
2022-12-17T02:33:24.111Z,3.67
2022-12-17T02:36:18.135Z,3.57
2022-12-17T02:39:03.612Z,3.49
2022-12-17T02:41:58.912Z,3.43
2022-12-17T02:44:46.777Z,3.41
2022-12-17T02:47:34.142Z,3.43
2022-12-17T02:50:19.429Z,3.47
2022-12-17T02:53:07.654Z,3.51
2022-12-17T02:55:55.622Z,3.54
2022-12-17T02:58:40.768Z,3.58
2022-12-17T03:01:27.059Z,3.60
2022-12-17T03:04:12.742Z,3.62
2022-12-17T03:06:57.879Z,3.65
2022-12-17T03:09:42.985Z,3.67
2022-12-17T03:12:28.367Z,3.67
2022-12-17T03:15:13.505Z,3.70
2022-12-17T03:17:58.917Z,3.68
2022-12-17T03:20:43.982Z,3.68
2022-12-17T03:23:30.995Z,3.69
2022-12-17T03:26:22.526Z,3.68
2022-12-17T03:29:08.015Z,3.67
2022-12-17T03:31:53.928Z,3.68
2022-12-17T03:34:39.036Z,3.67
2022-12-17T03:37:24.287Z,3.66
2022-12-17T03:40:09.673Z,3.67
2022-12-17T03:42:55.236Z,3.67
2022-12-17T03:45:40.454Z,3.66
2022-12-17T03:48:29.147Z,3.66
2022-12-17T03:51:15.376Z,3.61
2022-12-17T03:54:00.725Z,3.60
2022-12-17T03:56:46.798Z,3.59
2022-12-17T03:59:32.286Z,3.56
2022-12-17T04:02:18.818Z,3.51
2022-12-17T04:05:04.374Z,3.46
2022-12-17T04:07:50.026Z,3.37
2022-12-17T04:10:35.719Z,3.33
2022-12-17T04:13:20.814Z,3.26
2022-12-17T04:16:26.005Z,3.19
2022-12-17T04:19:11.277Z,3.11
2022-12-17T04:21:56.461Z,3.05
2022-12-17T04:24:41.969Z,2.97
2022-12-17T04:27:27.154Z,2.90
2022-12-17T04:30:12.535Z,2.83
2022-12-17T04:32:57.957Z,2.76
2022-12-17T04:35:43.148Z,2.69
2022-12-17T04:38:28.513Z,2.62
2022-12-17T04:41:13.703Z,2.56
2022-12-17T04:44:02.960Z,2.50
2022-12-17T04:46:49.159Z,2.42
2022-12-17T04:49:34.523Z,2.36
2022-12-17T04:52:20.347Z,2.31
2022-12-17T04:55:05.742Z,2.24
2022-12-17T04:57:51.605Z,2.19
2022-12-17T05:00:37.514Z,2.13
2022-12-17T05:03:25.392Z,2.07
2022-12-17T05:06:12.459Z,2.01
2022-12-17T05:08:58.000Z,1.97
2022-12-17T05:11:43.658Z,1.91
2022-12-17T05:14:29.094Z,1.84
2022-12-17T05:17:14.290Z,1.78
2022-12-17T05:19:59.916Z,1.71
2022-12-17T05:22:45.244Z,1.65
2022-12-17T05:25:32.455Z,1.57
2022-12-17T05:28:18.009Z,1.49
2022-12-17T05:31:13.955Z,1.41
2022-12-17T05:34:00.481Z,1.34
2022-12-17T05:36:45.524Z,1.29
2022-12-17T05:39:30.982Z,1.24
2022-12-17T05:42:16.144Z,1.22
2022-12-17T05:45:01.673Z,1.18
2022-12-17T05:47:47.486Z,1.13
2022-12-17T05:50:32.761Z,1.07
2022-12-17T05:53:23.601Z,1.04
2022-12-17T05:56:11.331Z,0.98
2022-12-17T05:58:58.188Z,0.92
2022-12-17T06:01:43.645Z,0.85
2022-12-17T06:04:29.925Z,0.83
2022-12-17T06:07:15.202Z,0.79
2022-12-17T06:10:00.532Z,0.77
2022-12-17T06:13:05.563Z,0.75
2022-12-17T06:15:50.870Z,0.75
2022-12-17T06:18:35.996Z,0.75
2022-12-17T06:21:21.283Z,0.78
2022-12-17T06:24:17.012Z,0.95
2022-12-17T06:27:02.387Z,1.13
2022-12-17T06:29:47.565Z,1.06
2022-12-17T06:32:32.997Z,1.04
2022-12-17T06:35:17.983Z,1.03
2022-12-17T06:38:03.422Z,1.05
2022-12-17T06:40:48.519Z,1.07
2022-12-17T06:43:34.189Z,1.07
2022-12-17T06:46:19.636Z,1.06
2022-12-17T06:49:04.931Z,1.03
2022-12-17T06:51:50.284Z,1.01
2022-12-17T06:54:35.365Z,0.95
2022-12-17T06:57:20.506Z,0.88
2022-12-17T07:00:05.732Z,0.83
2022-12-17T07:02:51.059Z,0.77
2022-12-17T07:05:36.743Z,0.72
2022-12-17T07:08:22.380Z,0.66
2022-12-17T07:11:07.559Z,0.63
2022-12-17T07:13:52.675Z,0.62
2022-12-17T07:16:37.951Z,0.61
2022-12-17T07:19:27.217Z,0.62
2022-12-17T07:22:12.794Z,0.61
2022-12-17T07:24:57.984Z,0.63
2022-12-17T07:27:43.846Z,0.61
2022-12-17T07:30:30.029Z,0.63
2022-12-17T07:33:25.881Z,0.61
2022-12-17T07:36:12.126Z,0.59
2022-12-17T07:38:57.825Z,0.53
2022-12-17T07:41:43.572Z,0.47
2022-12-17T07:44:28.804Z,0.40
2022-12-17T07:47:13.896Z,0.36
2022-12-17T07:49:59.034Z,0.34
2022-12-17T07:52:44.275Z,0.33
2022-12-17T07:55:29.272Z,0.29
2022-12-17T07:58:20.582Z,0.25
2022-12-17T08:01:05.860Z,0.23
2022-12-17T08:03:51.060Z,0.23
2022-12-17T08:06:36.591Z,0.23
2022-12-17T08:09:22.195Z,0.23
2022-12-17T08:12:07.655Z,0.22
2022-12-17T08:14:52.988Z,0.24
2022-12-17T08:17:38.082Z,0.30
2022-12-17T08:20:24.916Z,0.34
2022-12-17T08:23:10.001Z,0.41
2022-12-17T08:25:55.302Z,0.46
2022-12-17T08:28:50.627Z,0.47
2022-12-17T08:31:36.839Z,0.45
2022-12-17T08:34:22.507Z,0.50
2022-12-17T08:37:07.845Z,0.69
2022-12-17T08:39:52.989Z,1.12
2022-12-17T08:42:38.457Z,1.78
2022-12-17T08:45:24.668Z,2.59
2022-12-17T08:48:09.755Z,3.47
2022-12-17T08:50:55.421Z,4.37
2022-12-17T08:53:41.272Z,5.29
2022-12-17T08:56:26.662Z,6.03
2022-12-17T08:59:11.865Z,6.67
2022-12-17T09:01:57.000Z,7.30
2022-12-17T09:04:42.447Z,7.97
2022-12-17T09:07:27.696Z,8.70
2022-12-17T09:10:12.884Z,9.46
2022-12-17T09:13:04.143Z,10.19
2022-12-17T09:15:52.264Z,10.88
2022-12-17T09:18:39.744Z,11.47
2022-12-17T09:21:26.155Z,12.08
2022-12-17T09:24:11.444Z,12.63
2022-12-17T09:26:56.711Z,13.18
2022-12-17T09:29:41.972Z,13.70
2022-12-17T09:32:27.033Z,14.17
2022-12-17T09:35:12.211Z,14.55
2022-12-17T09:37:57.353Z,14.91
2022-12-17T09:40:43.591Z,15.24
2022-12-17T09:44:19.849Z,15.64
2022-12-17T09:47:46.532Z,16.02
2022-12-17T09:50:34.829Z,16.34
2022-12-17T09:53:49.355Z,16.68
2022-12-17T09:56:35.852Z,17.05
2022-12-17T09:59:22.148Z,17.35
2022-12-17T10:02:07.465Z,17.50
2022-12-17T10:05:01.330Z,17.56
2022-12-17T10:07:57.456Z,17.68
2022-12-17T10:10:48.814Z,17.88
2022-12-17T10:13:38.391Z,18.01
2022-12-17T10:16:46.836Z,18.09
2022-12-17T10:19:57.979Z,18.15
2022-12-17T10:22:43.269Z,18.20
2022-12-17T10:25:41.655Z,18.18
2022-12-17T10:28:33.789Z,18.16
2022-12-17T10:31:21.189Z,18.08
2022-12-17T10:34:06.919Z,18.06
2022-12-17T10:36:52.922Z,18.16
2022-12-17T10:39:44.829Z,18.24
2022-12-17T10:42:44.672Z,18.28
2022-12-17T10:45:47.726Z,18.20
2022-12-17T10:48:44.598Z,18.03
2022-12-17T10:51:51.137Z,17.78
2022-12-17T10:54:49.317Z,17.53
2022-12-17T10:57:55.414Z,17.27
2022-12-17T11:00:45.819Z,17.05
2022-12-17T11:03:50.777Z,16.79
2022-12-17T11:06:52.681Z,16.55
2022-12-17T11:10:09.009Z,16.35
2022-12-17T11:13:17.380Z,16.21
2022-12-17T11:16:11.511Z,16.11
2022-12-17T11:19:09.903Z,16.04
2022-12-17T11:22:02.364Z,16.02
2022-12-17T11:25:41.785Z,15.93
2022-12-17T11:28:42.466Z,15.82
2022-12-17T11:31:37.081Z,15.73
2022-12-17T11:35:07.556Z,15.51
2022-12-17T11:38:21.697Z,15.29
2022-12-17T11:41:14.276Z,14.99
2022-12-17T11:45:13.588Z,14.58
2022-12-17T11:48:44.456Z,14.13
2022-12-17T11:51:46.648Z,13.78
2022-12-17T11:54:45.282Z,13.47
2022-12-17T11:57:52.338Z,13.20
2022-12-17T12:00:41.919Z,12.93
2022-12-17T12:04:02.405Z,12.61
2022-12-17T12:07:21.993Z,12.15
2022-12-17T12:10:21.695Z,11.74
2022-12-17T12:13:39.881Z,11.27
2022-12-17T12:16:53.997Z,10.75
2022-12-17T12:20:13.603Z,10.25
2022-12-17T12:23:22.435Z,9.74
2022-12-17T12:26:42.930Z,9.24
2022-12-17T12:30:12.534Z,8.83
2022-12-17T12:34:01.136Z,8.36
2022-12-17T12:36:47.183Z,7.96
2022-12-17T12:39:43.181Z,7.66
2022-12-17T12:42:43.209Z,7.84
2022-12-17T12:46:26.016Z,7.38
2022-12-17T12:49:26.693Z,6.81
2022-12-17T12:52:17.125Z,6.43
2022-12-17T12:55:05.375Z,6.12
2022-12-17T12:58:23.064Z,5.76
2022-12-17T13:01:08.556Z,5.49
2022-12-17T13:04:08.178Z,5.28
2022-12-17T13:06:42.376Z,5.10
2022-12-17T13:09:15.226Z,4.94
2022-12-17T13:11:54.992Z,4.78
2022-12-17T13:14:29.137Z,4.63
2022-12-17T13:17:07.174Z,4.51
2022-12-17T13:19:40.681Z,4.37
2022-12-17T13:22:23.344Z,4.28
2022-12-17T13:25:11.577Z,4.17
2022-12-17T13:27:41.753Z,4.09
2022-12-17T13:30:36.026Z,4.02
2022-12-17T13:33:21.187Z,3.94
2022-12-17T13:36:11.333Z,3.85
2022-12-17T13:39:20.470Z,3.77
2022-12-17T13:41:47.217Z,3.71
2022-12-17T13:44:38.261Z,3.70
2022-12-17T13:47:05.033Z,3.64
2022-12-17T13:49:32.347Z,3.60
2022-12-17T13:52:15.056Z,3.57
2022-12-17T13:54:41.962Z,3.53
2022-12-17T13:57:14.509Z,3.49
2022-12-17T13:59:48.479Z,3.43
2022-12-17T14:02:36.212Z,3.38
2022-12-17T14:05:08.342Z,3.34
2022-12-17T14:07:39.155Z,3.31
2022-12-17T14:10:15.892Z,3.29
2022-12-17T14:12:43.289Z,3.28
2022-12-17T14:15:25.724Z,3.28
2022-12-17T14:17:54.900Z,3.26
2022-12-17T14:20:29.261Z,3.25
2022-12-17T14:23:23.027Z,3.26
2022-12-17T14:25:50.043Z,3.25
2022-12-17T14:28:52.226Z,3.25
2022-12-17T14:31:30.821Z,3.23
2022-12-17T14:34:15.835Z,3.22
2022-12-17T14:36:43.923Z,3.22
2022-12-17T14:39:26.183Z,3.24
2022-12-17T14:42:15.014Z,3.22
2022-12-17T14:45:02.050Z,3.21
2022-12-17T14:47:31.570Z,3.21
2022-12-17T14:50:04.438Z,3.20
2022-12-17T14:52:47.687Z,3.16
2022-12-17T14:55:39.600Z,3.12
2022-12-17T14:58:13.831Z,3.07
2022-12-17T15:00:48.013Z,3.02
2022-12-17T15:03:22.964Z,3.00
2022-12-17T15:05:58.939Z,2.95
2022-12-17T15:08:29.265Z,2.92
2022-12-17T15:10:55.963Z,2.90
2022-12-17T15:13:22.672Z,2.85
2022-12-17T15:15:49.389Z,2.79
2022-12-17T15:18:16.168Z,2.76
2022-12-17T15:20:43.316Z,2.69
2022-12-17T15:23:19.543Z,2.62
2022-12-17T15:25:49.597Z,2.57
2022-12-17T15:28:19.570Z,2.51
2022-12-17T15:30:47.569Z,2.46
2022-12-17T15:33:15.131Z,2.42
2022-12-17T15:35:43.158Z,2.37
2022-12-17T15:38:12.128Z,2.33
2022-12-17T15:40:39.910Z,2.27
2022-12-17T15:43:12.486Z,2.22
2022-12-17T15:45:46.671Z,2.15
2022-12-17T15:48:19.851Z,2.09
2022-12-17T15:50:47.994Z,2.03
2022-12-17T15:53:15.228Z,1.98
2022-12-17T15:55:42.218Z,1.94
2022-12-17T15:58:11.363Z,1.93
2022-12-17T16:00:38.767Z,1.89
2022-12-17T16:03:05.830Z,1.86
2022-12-17T16:05:32.645Z,1.84
2022-12-17T16:08:02.158Z,1.79
2022-12-17T16:10:29.697Z,1.77
2022-12-17T16:12:56.428Z,1.76
2022-12-17T16:15:23.161Z,1.76
2022-12-17T16:17:49.892Z,1.73
2022-12-17T16:20:16.926Z,1.70
2022-12-17T16:22:44.296Z,1.68
2022-12-17T16:25:11.144Z,1.66
2022-12-17T16:27:38.348Z,1.66
2022-12-17T16:30:06.013Z,1.63
2022-12-17T16:32:36.546Z,1.60
2022-12-17T16:35:04.893Z,1.57
2022-12-17T16:37:31.722Z,1.54
2022-12-17T16:40:00.327Z,1.50
2022-12-17T16:42:27.873Z,1.50
2022-12-17T16:44:54.608Z,1.45
2022-12-17T16:47:21.343Z,1.44
2022-12-17T16:49:50.683Z,1.40
2022-12-17T16:52:17.465Z,1.36
2022-12-17T16:54:44.222Z,1.34
2022-12-17T16:57:11.041Z,1.30
2022-12-17T16:59:37.750Z,1.29
2022-12-17T17:02:04.668Z,1.24
2022-12-17T17:04:31.522Z,1.21
2022-12-17T17:06:58.300Z,1.18
2022-12-17T17:09:25.772Z,1.15
2022-12-17T17:11:56.953Z,1.11
2022-12-17T17:14:24.016Z,1.06
2022-12-17T17:16:51.724Z,1.03
2022-12-17T17:19:19.680Z,0.99
2022-12-17T17:21:53.945Z,0.95
2022-12-17T17:24:24.085Z,0.94
2022-12-17T17:26:52.753Z,0.91
2022-12-17T17:29:19.995Z,0.89
2022-12-17T17:34:33.758Z,0.81
2022-12-17T17:37:00.550Z,0.80
2022-12-17T17:39:27.358Z,0.78
2022-12-17T17:41:54.162Z,0.77
2022-12-17T17:44:20.851Z,0.74
2022-12-17T17:46:47.636Z,0.72
2022-12-17T17:49:14.392Z,0.69
2022-12-17T17:54:30.803Z,0.67
2022-12-17T17:56:57.712Z,0.74
2022-12-17T17:59:31.203Z,0.71
2022-12-17T18:02:01.560Z,0.68
2022-12-17T18:04:28.712Z,0.63
2022-12-17T18:07:24.115Z,0.59
2022-12-17T18:09:42.247Z,0.54
2022-12-17T18:12:27.721Z,0.53
2022-12-17T18:17:44.112Z,0.39
2022-12-17T18:20:12.084Z,0.36
2022-12-17T18:22:38.786Z,0.33
2022-12-17T18:25:05.872Z,0.29
2022-12-17T18:27:32.913Z,0.23
2022-12-17T18:29:59.713Z,0.20
2022-12-17T18:32:26.537Z,0.14
2022-12-17T18:34:53.336Z,0.13
2022-12-17T18:37:20.173Z,0.09
2022-12-17T18:39:49.867Z,0.06
2022-12-17T18:42:35.012Z,0.02
2022-12-17T18:45:02.139Z,-0.04
2022-12-17T18:47:28.909Z,-0.08
2022-12-17T18:49:55.583Z,-0.12
2022-12-17T18:52:24.322Z,-0.15
2022-12-17T18:54:51.245Z,-0.19
2022-12-17T18:57:18.005Z,-0.25
2022-12-17T18:59:44.888Z,-0.26
2022-12-17T19:02:13.280Z,-0.26
2022-12-17T19:04:41.205Z,-0.27
2022-12-17T19:07:08.006Z,-0.27
2022-12-17T19:09:35.985Z,-0.29
2022-12-17T19:12:06.195Z,-0.30
2022-12-17T19:14:34.068Z,-0.33
2022-12-17T19:17:01.062Z,-0.35
2022-12-17T19:19:28.138Z,-0.39
2022-12-17T19:21:55.773Z,-0.42
2022-12-17T19:24:23.293Z,-0.45
2022-12-17T19:26:51.786Z,-0.48
2022-12-17T19:29:20.389Z,-0.52
2022-12-17T19:31:47.604Z,-0.56
2022-12-17T19:34:17.227Z,-0.55
2022-12-17T19:36:45.538Z,-0.58
2022-12-17T19:39:16.830Z,-0.59
2022-12-17T19:41:43.855Z,-0.61
2022-12-17T19:44:16.494Z,-0.63
2022-12-17T19:46:44.172Z,-0.63
2022-12-17T19:49:17.880Z,-0.64
2022-12-17T19:51:45.316Z,-0.66
2022-12-17T19:54:14.837Z,-0.65
2022-12-17T19:56:44.532Z,-0.65
2022-12-17T19:59:12.971Z,-0.65
2022-12-17T20:01:47.991Z,-0.66
2022-12-17T20:04:16.323Z,-0.68
2022-12-17T20:06:44.611Z,-0.70
2022-12-17T20:09:17.396Z,-0.71
2022-12-17T20:11:49.275Z,-0.71
2022-12-17T20:14:23.549Z,-0.78
2022-12-17T20:16:56.420Z,-0.81
2022-12-17T20:19:32.513Z,-0.82
2022-12-17T20:22:04.337Z,-0.86
2022-12-17T20:24:32.211Z,-0.87
2022-12-17T20:27:00.662Z,-0.88
2022-12-17T20:29:28.078Z,-0.89
2022-12-17T20:32:02.503Z,-0.89
2022-12-17T20:34:29.516Z,-0.90
2022-12-17T20:36:56.295Z,-0.90
2022-12-17T20:39:45.178Z,-0.93
2022-12-17T20:43:39.707Z,-0.96
2022-12-17T20:50:17.687Z,-1.09
2022-12-17T20:56:09.674Z,-1.14
2022-12-17T20:58:50.127Z,-1.16
2022-12-17T21:01:22.665Z,-1.21
2022-12-17T21:04:09.856Z,-1.20
2022-12-17T21:11:30.756Z,-1.29
2022-12-17T21:17:04.903Z,-1.45
2022-12-17T21:19:41.432Z,-1.47
2022-12-17T21:22:58.586Z,-1.50
2022-12-17T21:25:34.604Z,-1.52
2022-12-17T21:28:02.540Z,-1.52
2022-12-17T21:30:34.822Z,-1.52
2022-12-17T21:33:26.090Z,-1.51
2022-12-17T21:36:24.338Z,-1.55
2022-12-17T21:38:57.636Z,-1.55
2022-12-17T21:41:36.171Z,-1.55
2022-12-17T21:44:07.005Z,-1.53
2022-12-17T21:46:50.305Z,-1.53
2022-12-17T21:49:20.223Z,-1.52
2022-12-17T21:54:37.396Z,-1.49
2022-12-17T21:57:09.775Z,-1.50
2022-12-17T22:01:09.883Z,-1.50
2022-12-17T22:03:53.692Z,-1.57
2022-12-17T22:06:55.145Z,-1.52
2022-12-17T22:09:43.702Z,-1.52
2022-12-17T22:12:40.518Z,-1.54
2022-12-17T22:15:19.746Z,-1.53
2022-12-17T22:18:13.986Z,-1.51
2022-12-17T22:20:44.115Z,-1.50
2022-12-17T22:23:17.113Z,-1.51
2022-12-17T22:25:49.745Z,-1.51
2022-12-17T22:28:22.719Z,-1.45
2022-12-17T22:35:06.906Z,-1.46
2022-12-17T22:40:07.618Z,-1.43
2022-12-17T22:41:02.683Z,-1.41
2022-12-17T22:44:38.906Z,-1.38
2022-12-17T22:45:46.172Z,-1.40
2022-12-17T22:48:17.341Z,-1.39
2022-12-17T22:51:10.262Z,-1.37
2022-12-17T22:53:43.492Z,-1.35
2022-12-17T22:56:20.824Z,-1.32
2022-12-17T22:58:58.103Z,-1.33
2022-12-17T23:01:25.057Z,-1.35
2022-12-17T23:04:01.050Z,-1.33
2022-12-17T23:06:28.732Z,-1.39
2022-12-17T23:08:57.634Z,-1.40
2022-12-17T23:11:26.616Z,-1.42
2022-12-17T23:13:55.206Z,-1.48
2022-12-17T23:16:22.543Z,-1.52
2022-12-17T23:18:52.385Z,-1.54
2022-12-17T23:21:25.786Z,-1.58
2022-12-17T23:23:54.672Z,-1.60
2022-12-17T23:26:28.751Z,-1.62
2022-12-17T23:28:58.499Z,-1.64
2022-12-17T23:31:38.271Z,-1.68
2022-12-17T23:34:05.729Z,-1.71
2022-12-17T23:36:32.766Z,-1.72
2022-12-17T23:39:00.141Z,-1.70
2022-12-17T23:41:30.145Z,-1.68
2022-12-17T23:43:58.218Z,-1.71
2022-12-17T23:46:27.893Z,-1.73
2022-12-17T23:48:55.283Z,-1.78
2022-12-17T23:51:24.171Z,-1.79
2022-12-17T23:53:50.919Z,-1.83
2022-12-17T23:56:24.102Z,-1.84
2022-12-17T23:58:58.316Z,-1.88
